createdAt,value
2023-04-16T00:01:10.873Z,24.22
2023-04-16T00:03:38.097Z,24.79
2023-04-16T00:06:05.540Z,25.09
2023-04-16T00:08:32.524Z,24.98
2023-04-16T00:10:59.691Z,25.47
2023-04-16T00:13:27.962Z,25.23
2023-04-16T00:15:55.077Z,25.37
2023-04-16T00:18:22.104Z,25.37
2023-04-16T00:20:49.426Z,25.35
2023-04-16T00:23:17.355Z,25.61
2023-04-16T00:25:44.354Z,26.03
2023-04-16T00:28:11.354Z,26.36
2023-04-16T00:30:38.606Z,26.34
2023-04-16T00:33:05.837Z,26.22
2023-04-16T00:35:32.905Z,25.73
2023-04-16T00:37:59.924Z,26.47
2023-04-16T00:40:30.712Z,26.00
2023-04-16T00:42:57.767Z,26.47
2023-04-16T00:45:24.857Z,26.09
2023-04-16T00:47:52.221Z,26.71
2023-04-16T00:50:19.450Z,26.13
2023-04-16T00:52:49.888Z,26.39
2023-04-16T00:55:19.048Z,25.87
2023-04-16T00:57:46.300Z,26.45
2023-04-16T01:00:14.180Z,26.35
2023-04-16T01:02:41.334Z,26.50
2023-04-16T01:05:08.681Z,26.85
2023-04-16T01:07:35.854Z,26.44
2023-04-16T01:10:04.244Z,26.46
2023-04-16T01:12:32.709Z,26.45
2023-04-16T01:15:00.033Z,26.17
2023-04-16T01:17:27.261Z,26.78
2023-04-16T01:19:54.325Z,26.59
2023-04-16T01:22:21.380Z,26.52
2023-04-16T01:24:48.579Z,27.15
2023-04-16T01:27:15.800Z,26.49
2023-04-16T01:29:43.080Z,27.19
2023-04-16T01:32:10.638Z,26.81
2023-04-16T01:34:40.949Z,27.26
2023-04-16T01:37:13.535Z,27.25
2023-04-16T01:39:40.602Z,27.43
2023-04-16T01:42:08.657Z,27.20
2023-04-16T01:44:35.818Z,27.39
2023-04-16T01:47:02.982Z,27.90
2023-04-16T01:49:30.653Z,27.58
2023-04-16T01:51:57.714Z,28.61
2023-04-16T01:54:25.545Z,28.53
2023-04-16T01:56:52.520Z,28.67
2023-04-16T01:59:19.667Z,29.62
2023-04-16T02:01:47.323Z,29.43
2023-04-16T02:04:14.479Z,29.07
2023-04-16T02:06:41.823Z,29.50
2023-04-16T02:09:09.297Z,29.04
2023-04-16T02:11:37.868Z,30.25
2023-04-16T02:14:05.134Z,29.97
2023-04-16T02:16:32.308Z,29.82
2023-04-16T02:19:19.681Z,30.32
2023-04-16T02:21:47.050Z,30.22
2023-04-16T02:24:14.209Z,30.81
2023-04-16T02:26:42.849Z,30.88
2023-04-16T02:29:16.658Z,30.69
2023-04-16T02:31:49.910Z,31.10
2023-04-16T02:34:17.282Z,31.37
2023-04-16T02:36:44.496Z,30.74
2023-04-16T02:39:11.698Z,31.02
2023-04-16T02:41:38.873Z,31.90
2023-04-16T02:44:06.365Z,31.87
2023-04-16T02:46:33.432Z,31.34
2023-04-16T02:49:00.755Z,30.88
2023-04-16T02:51:27.923Z,31.26
2023-04-16T02:53:54.970Z,30.43
2023-04-16T02:56:21.987Z,31.10
2023-04-16T02:58:49.066Z,30.37
2023-04-16T03:01:16.503Z,31.60
2023-04-16T03:03:43.618Z,31.58
2023-04-16T03:06:11.011Z,31.71
2023-04-16T03:08:38.167Z,30.83
2023-04-16T03:11:05.402Z,31.04
2023-04-16T03:13:32.432Z,31.18
2023-04-16T03:15:59.830Z,30.81
2023-04-16T03:18:27.077Z,31.31
2023-04-16T03:20:54.373Z,30.75
2023-04-16T03:23:21.612Z,30.69
2023-04-16T03:25:48.705Z,30.86
2023-04-16T03:28:18.730Z,31.11
2023-04-16T03:30:54.880Z,30.49
2023-04-16T03:33:22.856Z,29.66
2023-04-16T03:35:58.620Z,29.57
2023-04-16T03:38:29.020Z,29.96
2023-04-16T03:40:57.780Z,29.87
2023-04-16T03:43:25.686Z,30.26
2023-04-16T03:45:52.833Z,29.96
2023-04-16T03:48:23.222Z,29.77
2023-04-16T03:50:50.441Z,29.24
2023-04-16T03:53:19.589Z,29.50
2023-04-16T03:55:54.062Z,29.50
2023-04-16T03:58:22.131Z,29.78
2023-04-16T04:00:49.517Z,29.07
2023-04-16T04:03:18.749Z,29.00
2023-04-16T04:05:48.706Z,28.73
2023-04-16T04:08:21.310Z,29.10
2023-04-16T04:10:48.288Z,28.50
2023-04-16T04:13:16.271Z,28.93
2023-04-16T04:15:44.741Z,28.81
2023-04-16T04:18:12.029Z,29.07
2023-04-16T04:20:41.911Z,28.66
2023-04-16T04:23:09.128Z,28.20
2023-04-16T04:25:36.363Z,27.65
2023-04-16T04:28:03.493Z,27.17
2023-04-16T04:30:30.808Z,27.94
2023-04-16T04:32:58.497Z,27.78
2023-04-16T04:35:25.809Z,26.64
2023-04-16T04:37:53.470Z,26.31
2023-04-16T04:40:21.453Z,26.40
2023-04-16T04:42:48.637Z,26.52
2023-04-16T04:45:16.213Z,25.86
2023-04-16T04:47:43.440Z,25.18
2023-04-16T04:50:11.303Z,25.21
2023-04-16T04:52:38.983Z,25.16
2023-04-16T04:55:07.817Z,24.68
2023-04-16T04:57:35.836Z,24.52
2023-04-16T05:00:05.965Z,24.18
2023-04-16T05:02:41.632Z,24.32
2023-04-16T05:05:09.059Z,24.50
2023-04-16T05:07:36.441Z,24.38
2023-04-16T05:10:03.471Z,24.32
2023-04-16T05:12:32.186Z,24.46
2023-04-16T05:14:59.325Z,24.14
2023-04-16T05:17:26.624Z,23.63
2023-04-16T05:19:53.862Z,23.55
2023-04-16T05:22:20.932Z,23.02
2023-04-16T05:24:48.038Z,23.18
2023-04-16T05:27:15.773Z,23.02
2023-04-16T05:29:43.045Z,23.31
2023-04-16T05:32:10.437Z,23.24
2023-04-16T05:34:37.503Z,23.38
2023-04-16T05:37:04.520Z,22.69
2023-04-16T05:39:31.549Z,22.32
2023-04-16T05:41:58.723Z,21.70
2023-04-16T05:44:25.998Z,21.95
2023-04-16T05:46:53.053Z,21.89
2023-04-16T05:49:20.352Z,20.91
2023-04-16T05:51:49.120Z,20.73
2023-04-16T05:54:17.742Z,21.33
2023-04-16T05:56:44.801Z,20.48
2023-04-16T05:59:12.072Z,20.07
2023-04-16T06:01:39.268Z,20.16
2023-04-16T06:04:06.513Z,20.13
2023-04-16T06:06:33.625Z,20.05
2023-04-16T06:09:01.039Z,19.81
2023-04-16T06:11:30.005Z,19.52
2023-04-16T06:13:57.076Z,19.43
2023-04-16T06:16:24.157Z,17.85
2023-04-16T06:18:51.178Z,16.64
2023-04-16T06:21:18.221Z,16.22
2023-04-16T06:23:45.293Z,16.66
2023-04-16T06:26:12.677Z,16.46
2023-04-16T06:28:39.688Z,16.22
2023-04-16T06:31:06.808Z,15.58
2023-04-16T06:33:33.841Z,14.37
2023-04-16T06:36:00.853Z,14.44
2023-04-16T06:38:27.809Z,13.60
2023-04-16T06:40:54.878Z,13.68
2023-04-16T06:43:22.191Z,13.85
2023-04-16T06:45:49.241Z,13.31
2023-04-16T06:48:16.337Z,12.48
2023-04-16T06:50:43.378Z,13.12
2023-04-16T06:53:10.586Z,13.22
2023-04-16T06:55:37.650Z,12.99
2023-04-16T06:58:04.779Z,12.72
2023-04-16T07:00:31.805Z,12.95
2023-04-16T07:03:01.368Z,12.94
2023-04-16T07:05:28.688Z,12.77
2023-04-16T07:07:57.806Z,12.54
2023-04-16T07:10:25.589Z,12.63
2023-04-16T07:12:52.995Z,12.53
2023-04-16T07:15:20.128Z,12.14
2023-04-16T07:17:47.390Z,11.97
2023-04-16T07:20:14.629Z,12.03
2023-04-16T07:22:41.850Z,11.77
2023-04-16T07:25:09.372Z,11.80
2023-04-16T07:27:36.376Z,11.34
2023-04-16T07:30:04.057Z,11.45
2023-04-16T07:32:32.267Z,11.81
2023-04-16T07:34:59.240Z,12.00
2023-04-16T07:37:26.244Z,12.22
2023-04-16T07:39:54.116Z,12.06
2023-04-16T07:42:22.678Z,11.95
2023-04-16T07:44:49.690Z,11.96
2023-04-16T07:47:16.757Z,11.52
2023-04-16T07:49:44.199Z,11.68
2023-04-16T07:52:11.343Z,11.48
2023-04-16T07:54:38.373Z,11.42
2023-04-16T07:57:05.542Z,11.21
2023-04-16T07:59:32.597Z,11.26
2023-04-16T08:01:59.746Z,11.42
2023-04-16T08:04:27.657Z,11.32
2023-04-16T08:06:54.987Z,11.58
2023-04-16T08:09:23.986Z,11.90
2023-04-16T08:11:51.091Z,11.69
2023-04-16T08:14:18.269Z,12.14
2023-04-16T08:16:45.271Z,12.08
2023-04-16T08:19:12.707Z,12.08
2023-04-16T08:21:40.056Z,12.16
2023-04-16T08:24:07.283Z,12.13
2023-04-16T08:26:34.570Z,12.02
2023-04-16T08:29:01.638Z,12.07
2023-04-16T08:31:29.044Z,11.86
2023-04-16T08:33:56.025Z,11.52
2023-04-16T08:36:23.124Z,11.68
2023-04-16T08:38:50.758Z,11.52
2023-04-16T08:41:18.293Z,11.55
2023-04-16T08:43:48.762Z,11.42
2023-04-16T08:46:17.946Z,11.63
2023-04-16T08:48:49.745Z,11.55
2023-04-16T08:51:20.011Z,11.27
2023-04-16T08:53:53.782Z,11.27
2023-04-16T08:56:25.941Z,10.96
2023-04-16T08:58:55.448Z,10.51
2023-04-16T09:01:22.867Z,10.72
2023-04-16T09:03:50.041Z,10.86
2023-04-16T09:06:17.579Z,10.98
2023-04-16T09:08:45.925Z,11.14
2023-04-16T09:11:14.551Z,10.49
2023-04-16T09:13:41.643Z,9.71
2023-04-16T09:16:09.598Z,10.11
2023-04-16T09:18:36.650Z,9.85
2023-04-16T09:21:04.780Z,9.49
2023-04-16T09:23:31.882Z,9.15
2023-04-16T09:25:59.588Z,9.01
2023-04-16T09:28:50.916Z,7.89
2023-04-16T09:31:19.772Z,8.25
2023-04-16T09:34:08.571Z,7.74
2023-04-16T09:36:36.709Z,8.31
2023-04-16T09:39:04.359Z,8.35
2023-04-16T09:41:36.228Z,8.41
2023-04-16T09:44:05.450Z,9.25
2023-04-16T09:46:41.854Z,9.10
2023-04-16T09:49:12.989Z,9.16
2023-04-16T09:51:44.450Z,9.31
2023-04-16T09:54:11.489Z,9.12
2023-04-16T09:56:46.892Z,9.38
2023-04-16T09:59:21.154Z,9.63
2023-04-16T10:02:12.286Z,9.54
2023-04-16T10:04:52.242Z,9.86
2023-04-16T10:07:20.114Z,9.81
2023-04-16T10:09:50.198Z,10.06
2023-04-16T10:12:17.216Z,9.80
2023-04-16T10:14:44.291Z,10.12
2023-04-16T10:17:11.712Z,10.23
2023-04-16T10:19:39.467Z,10.78
2023-04-16T10:22:06.829Z,10.88
2023-04-16T10:24:35.050Z,10.97
2023-04-16T10:27:02.686Z,11.11
2023-04-16T10:29:31.663Z,11.18
2023-04-16T10:31:59.798Z,11.39
2023-04-16T10:34:29.051Z,11.21
2023-04-16T10:36:56.177Z,11.24
2023-04-16T10:39:25.443Z,11.56
2023-04-16T10:42:08.850Z,11.46
2023-04-16T10:44:36.703Z,11.74
2023-04-16T10:47:09.949Z,12.12
2023-04-16T10:49:37.170Z,11.74
2023-04-16T10:52:18.721Z,11.70
2023-04-16T10:54:47.969Z,11.61
2023-04-16T10:57:20.167Z,12.31
2023-04-16T10:59:49.061Z,12.23
2023-04-16T11:02:19.800Z,12.14
2023-04-16T11:04:49.311Z,12.05
2023-04-16T11:07:18.378Z,12.38
2023-04-16T11:10:00.000Z,12.38
2023-04-16T11:12:32.825Z,12.39
2023-04-16T11:15:05.777Z,12.66
2023-04-16T11:17:43.173Z,12.62
2023-04-16T11:20:30.672Z,12.02
2023-04-16T11:22:58.293Z,12.07
2023-04-16T11:25:31.518Z,12.15
2023-04-16T11:27:59.398Z,12.56
2023-04-16T11:30:35.291Z,12.29
2023-04-16T11:33:08.449Z,12.45
2023-04-16T11:35:36.006Z,12.46
2023-04-16T11:38:03.053Z,13.00
2023-04-16T11:40:31.758Z,12.89
2023-04-16T11:43:04.068Z,13.06
2023-04-16T11:45:31.325Z,13.16
2023-04-16T11:47:58.559Z,13.18
2023-04-16T11:50:27.802Z,13.19
2023-04-16T11:52:57.445Z,13.35
2023-04-16T11:55:25.007Z,13.35
2023-04-16T11:57:52.500Z,13.28
2023-04-16T12:00:23.743Z,13.39
2023-04-16T12:02:54.797Z,13.35
2023-04-16T12:05:34.780Z,13.15
2023-04-16T12:08:04.285Z,13.50
2023-04-16T12:10:35.249Z,13.41
2023-04-16T12:13:17.024Z,13.16
2023-04-16T12:15:57.270Z,13.40
2023-04-16T12:18:27.162Z,13.71
2023-04-16T12:20:54.517Z,13.70
2023-04-16T12:23:30.080Z,13.88
2023-04-16T12:26:02.836Z,14.06
2023-04-16T12:28:35.600Z,14.28
2023-04-16T12:31:03.665Z,13.98
2023-04-16T12:33:31.522Z,14.16
2023-04-16T12:35:58.968Z,14.31
2023-04-16T12:38:26.937Z,14.23
2023-04-16T12:40:57.254Z,14.20
2023-04-16T12:43:25.630Z,14.28
2023-04-16T12:45:52.864Z,14.10
2023-04-16T12:48:20.011Z,14.00
2023-04-16T12:50:47.028Z,13.99
2023-04-16T12:53:14.171Z,14.19
2023-04-16T12:55:41.211Z,14.29
2023-04-16T12:58:11.107Z,14.08
2023-04-16T13:00:40.595Z,14.25
2023-04-16T13:03:08.055Z,14.20
2023-04-16T13:05:35.536Z,14.18
2023-04-16T13:08:02.758Z,14.24
2023-04-16T13:10:30.155Z,14.36
2023-04-16T13:12:57.502Z,14.31
2023-04-16T13:15:24.707Z,14.41
2023-04-16T13:17:51.945Z,14.37
2023-04-16T13:20:19.355Z,14.56
2023-04-16T13:22:46.501Z,14.58
2023-04-16T13:25:13.541Z,14.66
2023-04-16T13:27:40.719Z,14.68
2023-04-16T13:30:08.341Z,14.79
2023-04-16T13:32:35.561Z,14.52
2023-04-16T13:35:02.776Z,14.72
2023-04-16T13:37:31.047Z,14.96
2023-04-16T13:39:58.317Z,14.82
2023-04-16T13:42:25.314Z,14.59
2023-04-16T13:44:54.316Z,14.82
2023-04-16T13:47:21.870Z,14.53
2023-04-16T13:49:49.126Z,14.70
2023-04-16T13:52:16.264Z,14.73
2023-04-16T13:54:43.318Z,14.77
2023-04-16T13:57:19.995Z,14.69
2023-04-16T13:59:47.167Z,14.79
2023-04-16T14:02:14.306Z,14.73
2023-04-16T14:04:42.088Z,14.78
2023-04-16T14:07:09.160Z,14.55
2023-04-16T14:09:36.669Z,14.58
2023-04-16T14:12:03.900Z,14.78
2023-04-16T14:14:31.293Z,14.59
2023-04-16T14:16:59.244Z,14.82
2023-04-16T14:19:26.292Z,14.69
2023-04-16T14:21:53.288Z,14.66
2023-04-16T14:24:20.392Z,14.67
2023-04-16T14:26:47.471Z,14.73
2023-04-16T14:29:14.543Z,14.93
2023-04-16T14:31:41.742Z,14.80
2023-04-16T14:34:08.866Z,14.94
2023-04-16T14:36:36.630Z,14.98
2023-04-16T14:39:04.153Z,15.15
2023-04-16T14:41:31.564Z,14.95
2023-04-16T14:43:59.827Z,15.02
2023-04-16T14:46:27.223Z,15.03
2023-04-16T14:48:54.319Z,15.09
2023-04-16T14:51:21.461Z,15.00
2023-04-16T14:53:48.600Z,14.89
2023-04-16T14:56:15.738Z,14.95
2023-04-16T14:58:43.507Z,14.65
2023-04-16T15:01:10.646Z,14.91
2023-04-16T15:03:37.994Z,14.86
2023-04-16T15:08:32.873Z,15.11
2023-04-16T15:10:59.950Z,15.37
2023-04-16T15:13:33.731Z,15.25
2023-04-16T15:16:06.987Z,15.39
2023-04-16T15:18:34.158Z,15.42
2023-04-16T15:21:01.380Z,15.66
2023-04-16T15:23:28.432Z,15.56
2023-04-16T15:25:55.535Z,15.64
2023-04-16T15:28:22.657Z,15.50
2023-04-16T15:30:49.947Z,15.67
2023-04-16T15:33:16.969Z,15.58
2023-04-16T15:35:44.164Z,15.53
2023-04-16T15:38:11.313Z,15.43
2023-04-16T15:40:38.866Z,15.45
2023-04-16T15:43:06.613Z,15.58
2023-04-16T15:45:33.681Z,15.62
2023-04-16T15:48:00.791Z,15.82
2023-04-16T15:50:27.941Z,15.77
2023-04-16T15:52:54.955Z,15.81
2023-04-16T15:55:22.164Z,15.97
2023-04-16T15:57:49.156Z,15.99
2023-04-16T16:00:19.226Z,15.85
2023-04-16T16:02:47.471Z,15.53
2023-04-16T16:05:15.260Z,15.98
2023-04-16T16:07:43.360Z,15.98
2023-04-16T16:10:11.800Z,16.06
2023-04-16T16:12:40.707Z,15.97
2023-04-16T16:15:08.391Z,16.05
2023-04-16T16:17:36.197Z,16.06
2023-04-16T16:20:04.188Z,16.16
2023-04-16T16:22:31.449Z,16.36
2023-04-16T16:24:58.547Z,16.27
2023-04-16T16:27:25.683Z,16.25
2023-04-16T16:29:52.764Z,16.44
2023-04-16T16:32:19.784Z,16.44
2023-04-16T16:34:46.858Z,16.70
2023-04-16T16:37:13.921Z,16.77
2023-04-16T16:39:41.207Z,16.90
2023-04-16T16:42:09.288Z,17.09
2023-04-16T16:44:36.912Z,17.14
2023-04-16T16:47:04.100Z,17.33
2023-04-16T16:49:31.238Z,17.11
2023-04-16T16:51:58.246Z,17.36
2023-04-16T16:54:25.377Z,17.40
2023-04-16T16:56:53.020Z,17.63
2023-04-16T16:59:20.371Z,17.57
2023-04-16T17:01:47.422Z,17.51
2023-04-16T17:04:14.679Z,17.87
2023-04-16T17:06:42.148Z,17.52
2023-04-16T17:09:09.509Z,17.86
2023-04-16T17:11:37.370Z,17.93
2023-04-16T17:14:04.417Z,17.81
2023-04-16T17:16:31.458Z,17.96
2023-04-16T17:18:59.366Z,18.01
2023-04-16T17:21:26.373Z,17.92
2023-04-16T17:23:54.632Z,17.96
2023-04-16T17:26:22.502Z,17.95
2023-04-16T17:28:50.939Z,18.15
2023-04-16T17:31:18.284Z,17.99
2023-04-16T17:33:45.427Z,18.10
2023-04-16T17:36:12.926Z,18.51
2023-04-16T17:38:40.265Z,18.34
2023-04-16T17:41:07.769Z,18.61
2023-04-16T17:43:34.738Z,18.55
2023-04-16T17:46:01.880Z,18.33
2023-04-16T17:48:29.104Z,18.29
2023-04-16T17:50:56.141Z,18.70
2023-04-16T17:53:23.166Z,19.01
2023-04-16T17:55:51.958Z,18.66
2023-04-16T17:58:19.895Z,18.54
2023-04-16T18:00:46.929Z,19.27
2023-04-16T18:03:14.863Z,18.50
2023-04-16T18:05:42.080Z,19.17
2023-04-16T18:08:09.178Z,19.61
2023-04-16T18:10:36.359Z,19.66
2023-04-16T18:13:03.883Z,19.90
2023-04-16T18:15:30.973Z,19.78
2023-04-16T18:17:58.054Z,20.06
2023-04-16T18:20:25.149Z,20.09
2023-04-16T18:22:52.239Z,19.88
2023-04-16T18:25:25.616Z,20.19
2023-04-16T18:28:00.521Z,20.28
2023-04-16T18:30:28.227Z,20.75
2023-04-16T18:33:25.399Z,20.64
2023-04-16T18:35:42.455Z,20.71
2023-04-16T18:38:09.576Z,20.53
2023-04-16T18:40:37.437Z,20.68
2023-04-16T18:43:04.504Z,20.32
2023-04-16T18:48:02.948Z,20.53
2023-04-16T18:50:30.218Z,20.97
2023-04-16T18:52:57.229Z,20.49
2023-04-16T18:55:24.353Z,20.77
2023-04-16T18:57:51.343Z,20.62
2023-04-16T19:00:18.654Z,20.49
2023-04-16T19:02:45.807Z,20.67
2023-04-16T19:05:12.855Z,20.18
2023-04-16T19:07:40.129Z,20.58
2023-04-16T19:10:07.826Z,20.56
2023-04-16T19:12:35.104Z,20.76
2023-04-16T19:15:02.201Z,20.60
2023-04-16T19:17:32.119Z,20.75
2023-04-16T19:19:59.352Z,20.57
2023-04-16T19:22:26.744Z,20.77
2023-04-16T19:24:54.775Z,20.92
2023-04-16T19:27:21.774Z,21.00
2023-04-16T19:29:49.024Z,20.83
2023-04-16T19:32:16.120Z,21.17
2023-04-16T19:34:43.301Z,21.13
2023-04-16T19:37:10.472Z,21.28
2023-04-16T19:39:37.482Z,21.18
2023-04-16T19:42:04.848Z,21.41
2023-04-16T19:44:32.567Z,21.22
2023-04-16T19:46:59.836Z,21.51
2023-04-16T19:49:34.552Z,21.26
2023-04-16T19:52:01.978Z,21.23
2023-04-16T19:54:29.352Z,21.37
2023-04-16T19:56:57.146Z,21.60
2023-04-16T19:59:25.128Z,21.67
2023-04-16T20:01:52.132Z,21.00
2023-04-16T20:04:19.353Z,21.26
2023-04-16T20:06:46.653Z,21.59
2023-04-16T20:09:13.804Z,21.74
2023-04-16T20:11:40.861Z,21.83
2023-04-16T20:14:07.846Z,21.41
2023-04-16T20:16:35.241Z,21.38
2023-04-16T20:19:06.458Z,21.68
2023-04-16T20:21:35.092Z,21.30
2023-04-16T20:24:02.825Z,22.03
2023-04-16T20:26:34.228Z,21.97
2023-04-16T20:29:01.581Z,22.01
2023-04-16T20:31:29.093Z,22.05
2023-04-16T20:33:56.227Z,22.54
2023-04-16T20:36:23.215Z,22.50
2023-04-16T20:38:53.235Z,22.37
2023-04-16T20:41:21.497Z,22.54
2023-04-16T20:43:53.015Z,22.33
2023-04-16T20:46:24.458Z,22.13
2023-04-16T20:48:51.947Z,22.31
2023-04-16T20:51:19.057Z,22.40
2023-04-16T20:53:46.140Z,22.17
2023-04-16T20:56:15.055Z,22.12
2023-04-16T20:58:42.975Z,22.22
2023-04-16T21:01:10.586Z,22.50
2023-04-16T21:03:38.047Z,22.35
2023-04-16T21:06:05.347Z,22.87
2023-04-16T21:08:32.437Z,22.78
2023-04-16T21:10:59.508Z,22.40
2023-04-16T21:13:26.651Z,22.76
2023-04-16T21:15:53.757Z,22.53
2023-04-16T21:18:21.025Z,22.62
2023-04-16T21:20:48.130Z,22.40
2023-04-16T21:23:15.184Z,22.70
2023-04-16T21:25:42.217Z,22.28
2023-04-16T21:28:09.250Z,22.77
2023-04-16T21:30:37.108Z,22.47
2023-04-16T21:33:04.300Z,22.67
2023-04-16T21:35:33.254Z,22.57
2023-04-16T21:38:00.372Z,22.61
2023-04-16T21:40:27.366Z,22.52
2023-04-16T21:42:55.287Z,22.57
2023-04-16T21:45:22.395Z,22.54
2023-04-16T21:47:49.599Z,22.44
2023-04-16T21:50:16.713Z,22.82
2023-04-16T21:52:46.761Z,23.17
2023-04-16T21:55:17.109Z,23.59
2023-04-16T21:57:44.071Z,23.75
2023-04-16T22:00:14.566Z,23.70
2023-04-16T22:02:43.023Z,23.28
2023-04-16T22:05:11.437Z,23.62
2023-04-16T22:07:38.721Z,23.10
2023-04-16T22:10:06.936Z,23.49
2023-04-16T22:12:37.812Z,23.39
2023-04-16T22:15:05.910Z,23.25
2023-04-16T22:17:34.470Z,23.46
2023-04-16T22:20:08.988Z,23.32
2023-04-16T22:22:36.206Z,23.20
2023-04-16T22:25:03.526Z,23.30
2023-04-16T22:27:33.139Z,23.22
2023-04-16T22:30:00.160Z,23.62
2023-04-16T22:32:27.920Z,23.56
2023-04-16T22:34:55.205Z,24.20
2023-04-16T22:37:22.324Z,24.34
2023-04-16T22:39:49.288Z,24.34
2023-04-16T22:42:16.372Z,24.19
2023-04-16T22:44:43.466Z,24.66
2023-04-16T22:47:10.547Z,24.41
2023-04-16T22:49:37.579Z,24.29
2023-04-16T22:52:04.721Z,24.37
2023-04-16T22:54:32.453Z,24.09
2023-04-16T22:57:01.156Z,24.21
2023-04-16T22:59:28.162Z,24.47
2023-04-16T23:01:55.255Z,24.32
2023-04-16T23:04:22.445Z,23.97
2023-04-16T23:06:49.533Z,24.53
2023-04-16T23:09:17.104Z,24.25
2023-04-16T23:11:44.069Z,24.25
2023-04-16T23:14:11.049Z,24.38
2023-04-16T23:16:38.041Z,24.25
2023-04-16T23:19:05.064Z,24.26
2023-04-16T23:21:32.593Z,24.34
2023-04-16T23:23:59.581Z,24.55
2023-04-16T23:26:26.685Z,24.62
2023-04-16T23:28:53.671Z,25.20
2023-04-16T23:31:20.746Z,25.15
2023-04-16T23:33:47.824Z,25.28
2023-04-16T23:36:14.800Z,25.41
2023-04-16T23:38:41.790Z,25.97
2023-04-16T23:41:08.743Z,26.45
2023-04-16T23:43:36.503Z,25.98
2023-04-16T23:46:03.575Z,25.74
2023-04-16T23:48:30.671Z,25.56
2023-04-16T23:50:57.703Z,25.55
2023-04-16T23:53:24.706Z,25.28
2023-04-16T23:55:52.089Z,25.05
2023-04-16T23:58:19.125Z,25.26
